CPX103 Details

Departure: Ted Stevens Anchorage International Airport (PANC)
Arrival: Huntsville International Airport (KHSV)
Route: TED YESKA NCA13 YXY J515 YYE J537 YPE J601 XD YWV J475 VLN J483 MOT ABR Q19 DSM J45 IRK FAM J151 VUZ


Current Weather Information
PANC 252253Z 34005KT 10SM FEW060 BKN200 07/01 A3022 RMK AO2 SLP235 T00720011
KHSV 252329Z 32012KT 10SM FEW048 SCT060 SCT075 18/11 A2999 RMK AO2 TSB07E23 CB DSNT E T01830106